الصفحة الرئيسية
METAR-TAF:

METAR-TAF

مطار :

Nowra, أستراليا

دائرة عرض: 34-57S, خط طول: 150-32E, ارتفاع: 122 متر

مراقبة الطقس الحالي

تاريخ ووقت الإصدار 30 دقيقة قبل الساعة 19:00UTC
ريح 6 عقدة من الغرب
درجة الحرارة 12°درجة مئوية
الرطوبة 100%
ضغط 1021 hPa
الرؤية 10 كم أو أكثر
غيوم مفككة على ارتفاع 5900 قدم
غيوم مفككة على ارتفاع 6700 قدم
ملبد بالغيوم على ارتفاع 8100 قدم

METAR: YSNW 171900Z AUTO 28006KT 9999 // BKN059 BKN067 OVC081 12/12 Q1021

زمن: 05:30 (19:30 UTC)


TAF: مفقودة

أرصاد الطقس والتوقعات من أكثر من 4000 مطار (تقارير الطقس للمطار METAR والتنبؤ بالطقس بالمطارTAF).

المحطات المتاحة هي النقط الصفراء والحمراء على الخريطة.

حرك المؤشر فوق النقطة لمعرفة اسم المحطة.

ثم انقر لمعرفة أرصاد وتوقعات الطقس.

لتغيير الخارطة: اضغط على الأزرار الخضراء مع رمز الصليب الأسود للتكبير. على الزر الأخضر مع شرطة للتصغير، أو على الأسهم الخضراء للخرائط المجاورة.


METAR-TAF: